PWSweather.com
Personal Weather Stations
Station Observations
KOHCLEVE171
Cleveland, OH

Cleveland, OH

Lat: 41.48646164, Lon: -81.46408081

Elevation: 1059

Station Type:

High Low Average
Temperature 7.3°F-13.7°C -3.1°F-19.5°C 1.1°F-17.2°C
Dew Point -6.5°F-21.4°C -11.4°F-24.1°C -9.0°F-22.8°C
Winds 11.0 mph 17.7 kmh 0.9 mph 1.4 kmh 4.0 mph W6.4 kmh W
Wind Gusts 23.0 mph37.0 kmh 1.8 mph2.9 kmh 7.0 mph11.3 kmh
Humidity 70% 51% 62%
Pressure 30.46 in1031.5 mb 30.35 in1027.8 mb -
Precipitation 0.00 in0.0 mm - -
Hour Temp Dew Point Humidity Winds Wind Gusts Pressure Precip Precip Rate Daily Precip Total
12:04 AM -2.4°F-19.1°C -11.0°F-23.9°C 66% 4.3 mph NW6.9 kmh NW 5.4 mph8.7 kmh 30.34 in1027.4 mb 0.00 in0.0 mm 0.00 in0.0 mm 0.00 in0.0 mm
12:09 AM -2.6°F-19.2°C -11.4°F-24.1°C 65% 3.4 mph NW5.5 kmh NW 5.8 mph9.3 kmh 30.34 in1027.4 mb 0.00 in0.0 mm 0.00 in0.0 mm 0.00 in0.0 mm
12:14 AM -2.6°F-19.2°C -11.4°F-24.1°C 65% 3.6 mph NW5.8 kmh NW 4.5 mph7.2 kmh 30.34 in1027.4 mb 0.00 in0.0 mm 0.00 in0.0 mm 0.00 in0.0 mm
12:19 AM -2.7°F-19.3°C -11.6°F-24.2°C 65% 3.8 mph NW6.1 kmh NW 4.7 mph7.6 kmh 30.34 in1027.4 mb 0.00 in0.0 mm 0.00 in0.0 mm 0.00 in0.0 mm
12:24 AM -2.6°F-19.2°C -11.2°F-24.0°C 66% 4.5 mph NW7.2 kmh NW 4.7 mph7.6 kmh 30.34 in1027.4 mb 0.00 in0.0 mm 0.00 in0.0 mm 0.00 in0.0 mm
12:29 AM -2.6°F-19.2°C -11.2°F-24.0°C 66% 4.0 mph NW6.4 kmh NW 4.9 mph7.9 kmh 30.34 in1027.4 mb 0.00 in0.0 mm 0.00 in0.0 mm 0.00 in0.0 mm
12:34 AM -2.4°F-19.1°C -11.0°F-23.9°C 66% 4.3 mph NW6.9 kmh NW 4.7 mph7.6 kmh 30.34 in1027.4 mb 0.00 in0.0 mm 0.00 in0.0 mm 0.00 in0.0 mm
12:39 AM -2.6°F-19.2°C -11.2°F-24.0°C 66% 4.0 mph NW6.4 kmh NW 4.7 mph7.6 kmh 30.34 in1027.4 mb 0.00 in0.0 mm 0.00 in0.0 mm 0.00 in0.0 mm
12:44 AM -2.6°F-19.2°C -11.2°F-24.0°C 66% 4.3 mph NW6.9 kmh NW 6.7 mph10.8 kmh 30.35 in1027.8 mb 0.00 in0.0 mm 0.00 in0.0 mm 0.00 in0.0 mm
12:49 AM -2.6°F-19.2°C -11.2°F-24.0°C 66% 4.0 mph NW6.4 kmh NW 5.1 mph8.2 kmh 30.35 in1027.8 mb 0.00 in0.0 mm 0.00 in0.0 mm 0.00 in0.0 mm
12:54 AM -2.7°F-19.3°C -11.4°F-24.1°C 66% 4.3 mph NW6.9 kmh NW 4.7 mph7.6 kmh 30.35 in1027.8 mb 0.00 in0.0 mm 0.00 in0.0 mm 0.00 in0.0 mm
01:04 AM -2.7°F-19.3°C -11.4°F-24.1°C 66% 3.8 mph NW6.1 kmh NW 5.4 mph8.7 kmh 30.35 in1027.8 mb 0.00 in0.0 mm 0.00 in0.0 mm 0.00 in0.0 mm
01:09 AM -2.6°F-19.2°C -10.5°F-23.6°C 68% 4.3 mph NW6.9 kmh NW 6.5 mph10.5 kmh 30.35 in1027.8 mb 0.00 in0.0 mm 0.00 in0.0 mm 0.00 in0.0 mm
01:14 AM -2.7°F-19.3°C -11.4°F-24.1°C 66% 4.0 mph NW6.4 kmh NW 4.7 mph7.6 kmh 30.35 in1027.8 mb 0.00 in0.0 mm 0.00 in0.0 mm 0.00 in0.0 mm
01:19 AM -2.7°F-19.3°C -10.7°F-23.7°C 68% 4.0 mph NW6.4 kmh NW 4.5 mph7.2 kmh 30.35 in1027.8 mb 0.00 in0.0 mm 0.00 in0.0 mm 0.00 in0.0 mm
01:24 AM -2.6°F-19.2°C -10.5°F-23.6°C 68% 4.3 mph NW6.9 kmh NW 4.7 mph7.6 kmh 30.35 in1027.8 mb 0.00 in0.0 mm 0.00 in0.0 mm 0.00 in0.0 mm
01:29 AM -2.7°F-19.3°C -10.7°F-23.7°C 68% 4.5 mph NW7.2 kmh NW 5.8 mph9.3 kmh 30.35 in1027.8 mb 0.00 in0.0 mm 0.00 in0.0 mm 0.00 in0.0 mm
01:34 AM -2.7°F-19.3°C -10.7°F-23.7°C 68% 4.7 mph NW7.6 kmh NW 6.3 mph10.1 kmh 30.35 in1027.8 mb 0.00 in0.0 mm 0.00 in0.0 mm 0.00 in0.0 mm
01:39 AM -2.7°F-19.3°C -10.7°F-23.7°C 68% 4.0 mph NW6.4 kmh NW 5.4 mph8.7 kmh 30.35 in1027.8 mb 0.00 in0.0 mm 0.00 in0.0 mm 0.00 in0.0 mm
01:44 AM -2.7°F-19.3°C -10.7°F-23.7°C 68% 4.5 mph NNW7.2 kmh NNW 6.7 mph10.8 kmh 30.35 in1027.8 mb 0.00 in0.0 mm 0.00 in0.0 mm 0.00 in0.0 mm
01:49 AM -2.6°F-19.2°C -10.5°F-23.6°C 68% 4.3 mph NW6.9 kmh NW 4.7 mph7.6 kmh 30.35 in1027.8 mb 0.00 in0.0 mm 0.00 in0.0 mm 0.00 in0.0 mm
01:54 AM -2.7°F-19.3°C -10.7°F-23.7°C 68% 4.3 mph NW6.9 kmh NW 4.5 mph7.2 kmh 30.35 in1027.8 mb 0.00 in0.0 mm 0.00 in0.0 mm 0.00 in0.0 mm
01:59 AM -2.7°F-19.3°C -10.7°F-23.7°C 68% 4.7 mph NW7.6 kmh NW 6.7 mph10.8 kmh 30.35 in1027.8 mb 0.00 in0.0 mm 0.00 in0.0 mm 0.00 in0.0 mm
02:04 AM -2.7°F-19.3°C -10.7°F-23.7°C 68% 4.0 mph NW6.4 kmh NW 4.7 mph7.6 kmh 30.35 in1027.8 mb 0.00 in0.0 mm 0.00 in0.0 mm 0.00 in0.0 mm
02:09 AM -2.7°F-19.3°C -10.7°F-23.7°C 68% 4.3 mph NW6.9 kmh NW 5.1 mph8.2 kmh 30.35 in1027.8 mb 0.00 in0.0 mm 0.00 in0.0 mm 0.00 in0.0 mm
02:14 AM -2.7°F-19.3°C -10.7°F-23.7°C 68% 3.8 mph NW6.1 kmh NW 4.5 mph7.2 kmh 30.35 in1027.8 mb 0.00 in0.0 mm 0.00 in0.0 mm 0.00 in0.0 mm
02:19 AM -2.7°F-19.3°C -10.5°F-23.6°C 69% 4.0 mph NW6.4 kmh NW 4.7 mph7.6 kmh 30.35 in1027.8 mb 0.00 in0.0 mm 0.00 in0.0 mm 0.00 in0.0 mm
02:24 AM -2.7°F-19.3°C -10.5°F-23.6°C 69% 4.0 mph NW6.4 kmh NW 4.7 mph7.6 kmh 30.35 in1027.8 mb 0.00 in0.0 mm 0.00 in0.0 mm 0.00 in0.0 mm
02:29 AM -2.6°F-19.2°C -10.3°F-23.5°C 69% 4.3 mph NW6.9 kmh NW 4.5 mph7.2 kmh 30.35 in1027.8 mb 0.00 in0.0 mm 0.00 in0.0 mm 0.00 in0.0 mm
02:34 AM -2.7°F-19.3°C -10.5°F-23.6°C 69% 4.3 mph NW6.9 kmh NW 5.1 mph8.2 kmh 30.35 in1027.8 mb 0.00 in0.0 mm 0.00 in0.0 mm 0.00 in0.0 mm
02:39 AM -2.7°F-19.3°C -10.5°F-23.6°C 69% 4.5 mph NW7.2 kmh NW 5.1 mph8.2 kmh 30.36 in1028.1 mb 0.00 in0.0 mm 0.00 in0.0 mm 0.00 in0.0 mm
02:44 AM -2.9°F-19.4°C -10.7°F-23.7°C 69% 4.5 mph NW7.2 kmh NW 5.6 mph9.0 kmh 30.36 in1028.1 mb 0.00 in0.0 mm 0.00 in0.0 mm 0.00 in0.0 mm
02:49 AM -2.9°F-19.4°C -10.7°F-23.7°C 69% 3.6 mph NW5.8 kmh NW 5.4 mph8.7 kmh 30.36 in1028.1 mb 0.00 in0.0 mm 0.00 in0.0 mm 0.00 in0.0 mm
02:54 AM -3.1°F-19.5°C -10.7°F-23.7°C 69% 3.6 mph NW5.8 kmh NW 7.2 mph11.6 kmh 30.37 in1028.4 mb 0.00 in0.0 mm 0.00 in0.0 mm 0.00 in0.0 mm
02:59 AM -2.9°F-19.4°C -10.7°F-23.7°C 69% 4.3 mph NW6.9 kmh NW 6.7 mph10.8 kmh 30.37 in1028.4 mb 0.00 in0.0 mm 0.00 in0.0 mm 0.00 in0.0 mm
03:04 AM -2.9°F-19.4°C -10.7°F-23.7°C 69% 4.0 mph NW6.4 kmh NW 4.5 mph7.2 kmh 30.36 in1028.1 mb 0.00 in0.0 mm 0.00 in0.0 mm 0.00 in0.0 mm
03:09 AM -2.9°F-19.4°C -10.7°F-23.7°C 69% 4.3 mph NW6.9 kmh NW 4.9 mph7.9 kmh 30.37 in1028.4 mb 0.00 in0.0 mm 0.00 in0.0 mm 0.00 in0.0 mm
03:14 AM -2.9°F-19.4°C -10.7°F-23.7°C 69% 4.7 mph NW7.6 kmh NW 6.3 mph10.1 kmh 30.37 in1028.4 mb 0.00 in0.0 mm 0.00 in0.0 mm 0.00 in0.0 mm
03:19 AM -2.9°F-19.4°C -10.7°F-23.7°C 69% 4.3 mph NW6.9 kmh NW 4.5 mph7.2 kmh 30.37 in1028.4 mb 0.00 in0.0 mm 0.00 in0.0 mm 0.00 in0.0 mm
03:24 AM -2.7°F-19.3°C -10.5°F-23.6°C 69% 4.3 mph NW6.9 kmh NW 4.9 mph7.9 kmh 30.37 in1028.4 mb 0.00 in0.0 mm 0.00 in0.0 mm 0.00 in0.0 mm
03:29 AM -2.7°F-19.3°C -10.1°F-23.4°C 70% 4.3 mph NW6.9 kmh NW 4.7 mph7.6 kmh 30.37 in1028.4 mb 0.00 in0.0 mm 0.00 in0.0 mm 0.00 in0.0 mm
03:34 AM -2.7°F-19.3°C -10.1°F-23.4°C 70% 4.5 mph NW7.2 kmh NW 4.7 mph7.6 kmh 30.37 in1028.4 mb 0.00 in0.0 mm 0.00 in0.0 mm 0.00 in0.0 mm
03:39 AM -2.7°F-19.3°C -10.5°F-23.6°C 69% 4.3 mph NW6.9 kmh NW 4.7 mph7.6 kmh 30.37 in1028.4 mb 0.00 in0.0 mm 0.00 in0.0 mm 0.00 in0.0 mm
03:44 AM -2.7°F-19.3°C -10.5°F-23.6°C 69% 4.3 mph NW6.9 kmh NW 4.7 mph7.6 kmh 30.37 in1028.4 mb 0.00 in0.0 mm 0.00 in0.0 mm 0.00 in0.0 mm
03:49 AM -2.7°F-19.3°C -10.1°F-23.4°C 70% 4.5 mph NW7.2 kmh NW 5.4 mph8.7 kmh 30.37 in1028.4 mb 0.00 in0.0 mm 0.00 in0.0 mm 0.00 in0.0 mm
03:54 AM -2.7°F-19.3°C -10.1°F-23.4°C 70% 4.3 mph NW6.9 kmh NW 4.9 mph7.9 kmh 30.37 in1028.4 mb 0.00 in0.0 mm 0.00 in0.0 mm 0.00 in0.0 mm
03:59 AM -2.7°F-19.3°C -10.1°F-23.4°C 70% 4.3 mph NW6.9 kmh NW 4.7 mph7.6 kmh 30.37 in1028.4 mb 0.00 in0.0 mm 0.00 in0.0 mm 0.00 in0.0 mm
04:04 AM -2.7°F-19.3°C -10.1°F-23.4°C 70% 4.3 mph NW6.9 kmh NW 4.5 mph7.2 kmh 30.37 in1028.4 mb 0.00 in0.0 mm 0.00 in0.0 mm 0.00 in0.0 mm
04:09 AM -2.6°F-19.2°C -9.9°F-23.3°C 70% 4.3 mph NW6.9 kmh NW 4.5 mph7.2 kmh 30.37 in1028.4 mb 0.00 in0.0 mm 0.00 in0.0 mm 0.00 in0.0 mm
04:14 AM -2.6°F-19.2°C -9.9°F-23.3°C 70% 4.0 mph NW6.4 kmh NW 4.5 mph7.2 kmh 30.37 in1028.4 mb 0.00 in0.0 mm 0.00 in0.0 mm 0.00 in0.0 mm
04:19 AM -2.6°F-19.2°C -9.9°F-23.3°C 70% 4.3 mph NW6.9 kmh NW 4.5 mph7.2 kmh 30.37 in1028.4 mb 0.00 in0.0 mm 0.00 in0.0 mm 0.00 in0.0 mm
04:24 AM -2.6°F-19.2°C -9.9°F-23.3°C 70% 4.3 mph NW6.9 kmh NW 4.5 mph7.2 kmh 30.37 in1028.4 mb 0.00 in0.0 mm 0.00 in0.0 mm 0.00 in0.0 mm
04:29 AM -2.6°F-19.2°C -9.9°F-23.3°C 70% 4.3 mph NW6.9 kmh NW 4.5 mph7.2 kmh 30.37 in1028.4 mb 0.00 in0.0 mm 0.00 in0.0 mm 0.00 in0.0 mm
04:34 AM -2.6°F-19.2°C -9.9°F-23.3°C 70% 4.0 mph NW6.4 kmh NW 4.5 mph7.2 kmh 30.37 in1028.4 mb 0.00 in0.0 mm 0.00 in0.0 mm 0.00 in0.0 mm
04:39 AM -2.4°F-19.1°C -9.8°F-23.2°C 70% 4.3 mph NW6.9 kmh NW 5.4 mph8.7 kmh 30.37 in1028.4 mb 0.00 in0.0 mm 0.00 in0.0 mm 0.00 in0.0 mm
04:44 AM -2.7°F-19.3°C -10.1°F-23.4°C 70% 4.3 mph NW6.9 kmh NW 4.5 mph7.2 kmh 30.37 in1028.4 mb 0.00 in0.0 mm 0.00 in0.0 mm 0.00 in0.0 mm
04:49 AM -2.7°F-19.3°C -10.1°F-23.4°C 70% 4.3 mph NW6.9 kmh NW 5.6 mph9.0 kmh 30.37 in1028.4 mb 0.00 in0.0 mm 0.00 in0.0 mm 0.00 in0.0 mm
04:54 AM -2.7°F-19.3°C -10.1°F-23.4°C 70% 4.3 mph NW6.9 kmh NW 4.7 mph7.6 kmh 30.37 in1028.4 mb 0.00 in0.0 mm 0.00 in0.0 mm 0.00 in0.0 mm
04:59 AM -2.7°F-19.3°C -10.1°F-23.4°C 70% 4.0 mph NW6.4 kmh NW 4.5 mph7.2 kmh 30.37 in1028.4 mb 0.00 in0.0 mm 0.00 in0.0 mm 0.00 in0.0 mm
05:04 AM -2.6°F-19.2°C -9.9°F-23.3°C 70% 4.3 mph NW6.9 kmh NW 4.5 mph7.2 kmh 30.37 in1028.4 mb 0.00 in0.0 mm 0.00 in0.0 mm 0.00 in0.0 mm
05:09 AM -2.6°F-19.2°C -9.9°F-23.3°C 70% 4.3 mph NW6.9 kmh NW 4.7 mph7.6 kmh 30.38 in1028.8 mb 0.00 in0.0 mm 0.00 in0.0 mm 0.00 in0.0 mm
05:14 AM -2.6°F-19.2°C -9.9°F-23.3°C 70% 4.3 mph NW6.9 kmh NW 4.5 mph7.2 kmh 30.37 in1028.4 mb 0.00 in0.0 mm 0.00 in0.0 mm 0.00 in0.0 mm
05:19 AM -2.7°F-19.3°C -10.1°F-23.4°C 70% 3.8 mph NW6.1 kmh NW 5.4 mph8.7 kmh 30.38 in1028.8 mb 0.00 in0.0 mm 0.00 in0.0 mm 0.00 in0.0 mm
05:24 AM -2.6°F-19.2°C -9.9°F-23.3°C 70% 4.3 mph NW6.9 kmh NW 4.5 mph7.2 kmh 30.38 in1028.8 mb 0.00 in0.0 mm 0.00 in0.0 mm 0.00 in0.0 mm
05:29 AM -2.6°F-19.2°C -9.9°F-23.3°C 70% 4.7 mph NW7.6 kmh NW 5.6 mph9.0 kmh 30.37 in1028.4 mb 0.00 in0.0 mm 0.00 in0.0 mm 0.00 in0.0 mm
05:34 AM -2.7°F-19.3°C -10.1°F-23.4°C 70% 4.3 mph NW6.9 kmh NW 4.5 mph7.2 kmh 30.37 in1028.4 mb 0.00 in0.0 mm 0.00 in0.0 mm 0.00 in0.0 mm
05:39 AM -2.6°F-19.2°C -9.9°F-23.3°C 70% 4.3 mph NW6.9 kmh NW 4.5 mph7.2 kmh 30.38 in1028.8 mb 0.00 in0.0 mm 0.00 in0.0 mm 0.00 in0.0 mm
05:44 AM -2.6°F-19.2°C -9.9°F-23.3°C 70% 4.3 mph NW6.9 kmh NW 4.7 mph7.6 kmh 30.37 in1028.4 mb 0.00 in0.0 mm 0.00 in0.0 mm 0.00 in0.0 mm
05:49 AM -2.6°F-19.2°C -9.9°F-23.3°C 70% 4.3 mph NW6.9 kmh NW 4.7 mph7.6 kmh 30.38 in1028.8 mb 0.00 in0.0 mm 0.00 in0.0 mm 0.00 in0.0 mm
05:54 AM -2.7°F-19.3°C -10.1°F-23.4°C 70% 4.3 mph NW6.9 kmh NW 4.5 mph7.2 kmh 30.38 in1028.8 mb 0.00 in0.0 mm 0.00 in0.0 mm 0.00 in0.0 mm
05:59 AM -2.7°F-19.3°C -10.1°F-23.4°C 70% 4.3 mph NW6.9 kmh NW 4.7 mph7.6 kmh 30.38 in1028.8 mb 0.00 in0.0 mm 0.00 in0.0 mm 0.00 in0.0 mm
06:04 AM -2.6°F-19.2°C -9.9°F-23.3°C 70% 4.3 mph NW6.9 kmh NW 4.5 mph7.2 kmh 30.38 in1028.8 mb 0.00 in0.0 mm 0.00 in0.0 mm 0.00 in0.0 mm
06:09 AM -2.4°F-19.1°C -9.8°F-23.2°C 70% 4.3 mph NW6.9 kmh NW 4.9 mph7.9 kmh 30.38 in1028.8 mb 0.00 in0.0 mm 0.00 in0.0 mm 0.00 in0.0 mm
06:14 AM -2.6°F-19.2°C -9.9°F-23.3°C 70% 4.3 mph NW6.9 kmh NW 4.5 mph7.2 kmh 30.39 in1029.1 mb 0.00 in0.0 mm 0.00 in0.0 mm 0.00 in0.0 mm
06:19 AM -2.6°F-19.2°C -9.9°F-23.3°C 70% 4.3 mph NW6.9 kmh NW 4.5 mph7.2 kmh 30.39 in1029.1 mb 0.00 in0.0 mm 0.00 in0.0 mm 0.00 in0.0 mm
06:24 AM -2.7°F-19.3°C -10.1°F-23.4°C 70% 4.5 mph NW7.2 kmh NW 5.6 mph9.0 kmh 30.39 in1029.1 mb 0.00 in0.0 mm 0.00 in0.0 mm 0.00 in0.0 mm
06:29 AM -2.7°F-19.3°C -10.1°F-23.4°C 70% 4.3 mph NW6.9 kmh NW 4.7 mph7.6 kmh 30.39 in1029.1 mb 0.00 in0.0 mm 0.00 in0.0 mm 0.00 in0.0 mm
06:34 AM -2.6°F-19.2°C -9.9°F-23.3°C 70% 4.0 mph NW6.4 kmh NW 4.7 mph7.6 kmh 30.39 in1029.1 mb 0.00 in0.0 mm 0.00 in0.0 mm 0.00 in0.0 mm
06:39 AM -2.7°F-19.3°C -10.1°F-23.4°C 70% 4.5 mph NW7.2 kmh NW 4.7 mph7.6 kmh 30.39 in1029.1 mb 0.00 in0.0 mm 0.00 in0.0 mm 0.00 in0.0 mm
06:44 AM -2.9°F-19.4°C -10.3°F-23.5°C 70% 4.3 mph NW6.9 kmh NW 4.7 mph7.6 kmh 30.40 in1029.5 mb 0.00 in0.0 mm 0.00 in0.0 mm 0.00 in0.0 mm
06:49 AM -2.7°F-19.3°C -10.1°F-23.4°C 70% 4.5 mph NW7.2 kmh NW 4.5 mph7.2 kmh 30.39 in1029.1 mb 0.00 in0.0 mm 0.00 in0.0 mm 0.00 in0.0 mm
06:54 AM -2.9°F-19.4°C -10.3°F-23.5°C 70% 4.3 mph NW6.9 kmh NW 4.9 mph7.9 kmh 30.39 in1029.1 mb 0.00 in0.0 mm 0.00 in0.0 mm 0.00 in0.0 mm
06:59 AM -2.7°F-19.3°C -10.1°F-23.4°C 70% 4.3 mph NW6.9 kmh NW 5.4 mph8.7 kmh 30.39 in1029.1 mb 0.00 in0.0 mm 0.00 in0.0 mm 0.00 in0.0 mm
07:04 AM -2.7°F-19.3°C -10.5°F-23.6°C 69% 4.0 mph NW6.4 kmh NW 4.5 mph7.2 kmh 30.40 in1029.5 mb 0.00 in0.0 mm 0.00 in0.0 mm 0.00 in0.0 mm
07:09 AM -2.7°F-19.3°C -10.1°F-23.4°C 70% 4.7 mph NW7.6 kmh NW 6.0 mph9.7 kmh 30.40 in1029.5 mb 0.00 in0.0 mm 0.00 in0.0 mm 0.00 in0.0 mm
07:14 AM -2.7°F-19.3°C -10.1°F-23.4°C 70% 4.0 mph NW6.4 kmh NW 4.7 mph7.6 kmh 30.40 in1029.5 mb 0.00 in0.0 mm 0.00 in0.0 mm 0.00 in0.0 mm
07:19 AM -2.7°F-19.3°C -10.5°F-23.6°C 69% 4.3 mph NW6.9 kmh NW 4.5 mph7.2 kmh 30.40 in1029.5 mb 0.00 in0.0 mm 0.00 in0.0 mm 0.00 in0.0 mm
07:24 AM -2.7°F-19.3°C -10.5°F-23.6°C 69% 4.0 mph NW6.4 kmh NW 4.5 mph7.2 kmh 30.40 in1029.5 mb 0.00 in0.0 mm 0.00 in0.0 mm 0.00 in0.0 mm
07:29 AM -2.7°F-19.3°C -10.5°F-23.6°C 69% 4.3 mph NW6.9 kmh NW 4.7 mph7.6 kmh 30.41 in1029.8 mb 0.00 in0.0 mm 0.00 in0.0 mm 0.00 in0.0 mm
07:34 AM -2.7°F-19.3°C -10.5°F-23.6°C 69% 4.7 mph NW7.6 kmh NW 6.9 mph11.1 kmh 30.41 in1029.8 mb 0.00 in0.0 mm 0.00 in0.0 mm 0.00 in0.0 mm
07:39 AM -2.7°F-19.3°C -10.5°F-23.6°C 69% 4.0 mph NW6.4 kmh NW 4.7 mph7.6 kmh 30.41 in1029.8 mb 0.00 in0.0 mm 0.00 in0.0 mm 0.00 in0.0 mm
07:44 AM -2.9°F-19.4°C -10.7°F-23.7°C 69% 4.3 mph NW6.9 kmh NW 4.5 mph7.2 kmh 30.41 in1029.8 mb 0.00 in0.0 mm 0.00 in0.0 mm 0.00 in0.0 mm
07:49 AM -2.9°F-19.4°C -10.7°F-23.7°C 69% 4.0 mph NW6.4 kmh NW 4.5 mph7.2 kmh 30.41 in1029.8 mb 0.00 in0.0 mm 0.00 in0.0 mm 0.00 in0.0 mm
07:54 AM -2.9°F-19.4°C -10.7°F-23.7°C 69% 4.3 mph NW6.9 kmh NW 4.5 mph7.2 kmh 30.41 in1029.8 mb 0.00 in0.0 mm 0.00 in0.0 mm 0.00 in0.0 mm
07:59 AM -2.7°F-19.3°C -10.5°F-23.6°C 69% 4.0 mph NW6.4 kmh NW 4.5 mph7.2 kmh 30.41 in1029.8 mb 0.00 in0.0 mm 0.00 in0.0 mm 0.00 in0.0 mm
08:04 AM -2.7°F-19.3°C -10.5°F-23.6°C 69% 4.3 mph NW6.9 kmh NW 4.5 mph7.2 kmh 30.41 in1029.8 mb 0.00 in0.0 mm 0.00 in0.0 mm 0.00 in0.0 mm
08:09 AM -2.7°F-19.3°C -10.5°F-23.6°C 69% 4.3 mph NW6.9 kmh NW 4.3 mph6.9 kmh 30.41 in1029.8 mb 0.00 in0.0 mm 0.00 in0.0 mm 0.00 in0.0 mm
08:14 AM -2.7°F-19.3°C -10.5°F-23.6°C 69% 4.3 mph NW6.9 kmh NW 4.7 mph7.6 kmh 30.41 in1029.8 mb 0.00 in0.0 mm 0.00 in0.0 mm 0.00 in0.0 mm
08:19 AM -2.7°F-19.3°C -10.5°F-23.6°C 69% 4.3 mph NW6.9 kmh NW 4.5 mph7.2 kmh 30.41 in1029.8 mb 0.00 in0.0 mm 0.00 in0.0 mm 0.00 in0.0 mm
08:24 AM -2.7°F-19.3°C -10.5°F-23.6°C 69% 4.3 mph NW6.9 kmh NW 4.5 mph7.2 kmh 30.42 in1030.1 mb 0.00 in0.0 mm 0.00 in0.0 mm 0.00 in0.0 mm
08:29 AM -2.9°F-19.4°C -10.8°F-23.8°C 68% 4.3 mph NW6.9 kmh NW 4.5 mph7.2 kmh 30.42 in1030.1 mb 0.00 in0.0 mm 0.00 in0.0 mm 0.00 in0.0 mm
08:34 AM -2.6°F-19.2°C -10.3°F-23.5°C 69% 4.3 mph NW6.9 kmh NW 5.6 mph9.0 kmh 30.42 in1030.1 mb 0.00 in0.0 mm 0.00 in0.0 mm 0.00 in0.0 mm
08:39 AM -2.4°F-19.1°C -10.1°F-23.4°C 69% 4.3 mph NW6.9 kmh NW 4.3 mph6.9 kmh 30.42 in1030.1 mb 0.00 in0.0 mm 0.00 in0.0 mm 0.00 in0.0 mm
08:44 AM -2.6°F-19.2°C -10.5°F-23.6°C 68% 4.3 mph NW6.9 kmh NW 4.3 mph6.9 kmh 30.42 in1030.1 mb 0.00 in0.0 mm 0.00 in0.0 mm 0.00 in0.0 mm
08:49 AM -2.7°F-19.3°C -10.7°F-23.7°C 68% 4.0 mph NW6.4 kmh NW 4.5 mph7.2 kmh 30.42 in1030.1 mb 0.00 in0.0 mm 0.00 in0.0 mm 0.00 in0.0 mm
08:54 AM -2.7°F-19.3°C -10.7°F-23.7°C 68% 4.3 mph NW6.9 kmh NW 4.3 mph6.9 kmh 30.42 in1030.1 mb 0.00 in0.0 mm 0.00 in0.0 mm 0.00 in0.0 mm
08:59 AM -2.7°F-19.3°C -10.7°F-23.7°C 68% 4.0 mph NW6.4 kmh NW 4.3 mph6.9 kmh 30.42 in1030.1 mb 0.00 in0.0 mm 0.00 in0.0 mm 0.00 in0.0 mm
09:04 AM -2.6°F-19.2°C -10.5°F-23.6°C 68% 4.3 mph NW6.9 kmh NW 4.7 mph7.6 kmh 30.42 in1030.1 mb 0.00 in0.0 mm 0.00 in0.0 mm 0.00 in0.0 mm
09:09 AM -2.6°F-19.2°C -10.5°F-23.6°C 68% 4.3 mph NW6.9 kmh NW 4.3 mph6.9 kmh 30.42 in1030.1 mb 0.00 in0.0 mm 0.00 in0.0 mm 0.00 in0.0 mm
09:14 AM -2.6°F-19.2°C -10.5°F-23.6°C 68% 4.3 mph NW6.9 kmh NW 4.3 mph6.9 kmh 30.42 in1030.1 mb 0.00 in0.0 mm 0.00 in0.0 mm 0.00 in0.0 mm
09:19 AM -2.4°F-19.1°C -10.3°F-23.5°C 68% 4.0 mph NW6.4 kmh NW 4.5 mph7.2 kmh 30.42 in1030.1 mb 0.00 in0.0 mm 0.00 in0.0 mm 0.00 in0.0 mm
09:24 AM -2.4°F-19.1°C -10.3°F-23.5°C 68% 3.6 mph NW5.8 kmh NW 4.9 mph7.9 kmh 30.42 in1030.1 mb 0.00 in0.0 mm 0.00 in0.0 mm 0.00 in0.0 mm
09:29 AM -2.4°F-19.1°C -10.3°F-23.5°C 68% 4.0 mph NW6.4 kmh NW 4.5 mph7.2 kmh 30.43 in1030.5 mb 0.00 in0.0 mm 0.00 in0.0 mm 0.00 in0.0 mm
09:34 AM -2.2°F-19.0°C -10.1°F-23.4°C 68% 3.8 mph NW6.1 kmh NW 4.7 mph7.6 kmh 30.43 in1030.5 mb 0.00 in0.0 mm 0.00 in0.0 mm 0.00 in0.0 mm
09:39 AM -2.2°F-19.0°C -10.8°F-23.8°C 66% 2.5 mph NW4.0 kmh NW 4.5 mph7.2 kmh 30.43 in1030.5 mb 0.00 in0.0 mm 0.00 in0.0 mm 0.00 in0.0 mm
09:44 AM -2.0°F-18.9°C -10.7°F-23.7°C 66% 2.9 mph NW4.7 kmh NW 4.5 mph7.2 kmh 30.43 in1030.5 mb 0.00 in0.0 mm 0.00 in0.0 mm 0.00 in0.0 mm
09:49 AM -2.0°F-18.9°C -10.7°F-23.7°C 66% 2.7 mph NW4.3 kmh NW 5.1 mph8.2 kmh 30.43 in1030.5 mb 0.00 in0.0 mm 0.00 in0.0 mm 0.00 in0.0 mm
09:54 AM -1.8°F-18.8°C -10.5°F-23.6°C 66% 1.8 mph NW2.9 kmh NW 4.0 mph6.4 kmh 30.44 in1030.8 mb 0.00 in0.0 mm 0.00 in0.0 mm 0.00 in0.0 mm
09:59 AM -1.7°F-18.7°C -10.5°F-23.6°C 65% 1.8 mph SW2.9 kmh SW 4.9 mph7.9 kmh 30.43 in1030.5 mb 0.00 in0.0 mm 0.00 in0.0 mm 0.00 in0.0 mm
10:04 AM -1.5°F-18.6°C -10.5°F-23.6°C 65% 1.3 mph W2.1 kmh W 4.5 mph7.2 kmh 30.44 in1030.8 mb 0.00 in0.0 mm 0.00 in0.0 mm 0.00 in0.0 mm
10:09 AM -1.3°F-18.5°C -10.3°F-23.5°C 65% 1.8 mph SW2.9 kmh SW 4.5 mph7.2 kmh 30.44 in1030.8 mb 0.00 in0.0 mm 0.00 in0.0 mm 0.00 in0.0 mm
10:14 AM -1.1°F-18.4°C -10.1°F-23.4°C 65% 1.6 mph NW2.6 kmh NW 4.7 mph7.6 kmh 30.44 in1030.8 mb 0.00 in0.0 mm 0.00 in0.0 mm 0.00 in0.0 mm
10:19 AM -1.1°F-18.4°C -10.3°F-23.5°C 64% 2.9 mph NW4.7 kmh NW 5.4 mph8.7 kmh 30.44 in1030.8 mb 0.00 in0.0 mm 0.00 in0.0 mm 0.00 in0.0 mm
10:24 AM -1.1°F-18.4°C -10.3°F-23.5°C 64% 0.9 mph NW1.4 kmh NW 3.6 mph5.8 kmh 30.44 in1030.8 mb 0.00 in0.0 mm 0.00 in0.0 mm 0.00 in0.0 mm
10:29 AM -0.8°F-18.2°C -9.9°F-23.3°C 64% 2.5 mph SW4.0 kmh SW 5.6 mph9.0 kmh 30.44 in1030.8 mb 0.00 in0.0 mm 0.00 in0.0 mm 0.00 in0.0 mm
10:34 AM -0.6°F-18.1°C -9.9°F-23.3°C 64% 2.2 mph WSW3.5 kmh WSW 6.9 mph11.1 kmh 30.44 in1030.8 mb 0.00 in0.0 mm 0.00 in0.0 mm 0.00 in0.0 mm
10:39 AM -0.4°F-18.0°C -9.9°F-23.3°C 63% 2.7 mph SW4.3 kmh SW 5.6 mph9.0 kmh 30.44 in1030.8 mb 0.00 in0.0 mm 0.00 in0.0 mm 0.00 in0.0 mm
10:44 AM -0.2°F-17.9°C -9.6°F-23.1°C 64% 3.1 mph SW5.0 kmh SW 9.2 mph14.8 kmh 30.44 in1030.8 mb 0.00 in0.0 mm 0.00 in0.0 mm 0.00 in0.0 mm
10:49 AM 0.0°F-17.8°C -9.6°F-23.1°C 63% 4.7 mph SW7.6 kmh SW 18.8 mph30.3 kmh 30.44 in1030.8 mb 0.00 in0.0 mm 0.00 in0.0 mm 0.00 in0.0 mm
10:54 AM 0.1°F-17.7°C -9.4°F-23.0°C 63% 2.7 mph SW4.3 kmh SW 5.8 mph9.3 kmh 30.44 in1030.8 mb 0.00 in0.0 mm 0.00 in0.0 mm 0.00 in0.0 mm
10:59 AM 0.3°F-17.6°C -9.6°F-23.1°C 62% 3.6 mph SW5.8 kmh SW 18.8 mph30.3 kmh 30.45 in1031.2 mb 0.00 in0.0 mm 0.00 in0.0 mm 0.00 in0.0 mm
11:04 AM 0.1°F-17.7°C -10.1°F-23.4°C 61% 2.0 mph WSW3.2 kmh WSW 8.9 mph14.3 kmh 30.45 in1031.2 mb 0.00 in0.0 mm 0.00 in0.0 mm 0.00 in0.0 mm
11:09 AM 0.3°F-17.6°C -9.9°F-23.3°C 61% 1.8 mph WSW2.9 kmh WSW 3.8 mph6.1 kmh 30.45 in1031.2 mb 0.00 in0.0 mm 0.00 in0.0 mm 0.00 in0.0 mm
11:14 AM 0.7°F-17.4°C -9.6°F-23.1°C 61% 2.7 mph WSW4.3 kmh WSW 7.8 mph12.6 kmh 30.45 in1031.2 mb 0.00 in0.0 mm 0.00 in0.0 mm 0.00 in0.0 mm
11:19 AM 0.7°F-17.4°C -9.9°F-23.3°C 60% 1.6 mph SW2.6 kmh SW 4.3 mph6.9 kmh 30.46 in1031.5 mb 0.00 in0.0 mm 0.00 in0.0 mm 0.00 in0.0 mm
11:24 AM 1.0°F-17.2°C -9.2°F-22.9°C 61% 3.4 mph SW5.5 kmh SW 15.2 mph24.5 kmh 30.46 in1031.5 mb 0.00 in0.0 mm 0.00 in0.0 mm 0.00 in0.0 mm
11:29 AM 1.2°F-17.1°C -9.0°F-22.8°C 61% 4.0 mph SW6.4 kmh SW 16.1 mph25.9 kmh 30.46 in1031.5 mb 0.00 in0.0 mm 0.00 in0.0 mm 0.00 in0.0 mm
11:34 AM 1.4°F-17.0°C -8.9°F-22.7°C 61% 9.4 mph SW15.1 kmh SW 20.4 mph32.8 kmh 30.46 in1031.5 mb 0.00 in0.0 mm 0.00 in0.0 mm 0.00 in0.0 mm
11:39 AM 1.6°F-16.9°C -8.9°F-22.7°C 61% 7.4 mph SW11.9 kmh SW 17.0 mph27.4 kmh 30.46 in1031.5 mb 0.00 in0.0 mm 0.00 in0.0 mm 0.00 in0.0 mm
11:44 AM 1.8°F-16.8°C -8.7°F-22.6°C 61% 2.0 mph SW3.2 kmh SW 6.5 mph10.5 kmh 30.46 in1031.5 mb 0.00 in0.0 mm 0.00 in0.0 mm 0.00 in0.0 mm
11:49 AM 1.8°F-16.8°C -8.9°F-22.7°C 60% 3.4 mph SW5.5 kmh SW 12.1 mph19.5 kmh 30.46 in1031.5 mb 0.00 in0.0 mm 0.00 in0.0 mm 0.00 in0.0 mm
11:54 AM 1.6°F-16.9°C -9.0°F-22.8°C 60% 9.8 mph SW15.8 kmh SW 17.0 mph27.4 kmh 30.46 in1031.5 mb 0.00 in0.0 mm 0.00 in0.0 mm 0.00 in0.0 mm
11:59 AM 1.9°F-16.7°C -8.7°F-22.6°C 60% 9.4 mph SW15.1 kmh SW 22.1 mph35.6 kmh 30.46 in1031.5 mb 0.00 in0.0 mm 0.00 in0.0 mm 0.00 in0.0 mm
12:04 PM 2.1°F-16.6°C -8.7°F-22.6°C 60% 5.4 mph SW8.7 kmh SW 13.9 mph22.4 kmh 30.45 in1031.2 mb 0.00 in0.0 mm 0.00 in0.0 mm 0.00 in0.0 mm
12:09 PM 2.1°F-16.6°C -8.9°F-22.7°C 59% 1.3 mph WSW2.1 kmh WSW 3.4 mph5.5 kmh 30.46 in1031.5 mb 0.00 in0.0 mm 0.00 in0.0 mm 0.00 in0.0 mm
12:14 PM 2.1°F-16.6°C -8.9°F-22.7°C 59% 3.8 mph SW6.1 kmh SW 11.9 mph19.2 kmh 30.45 in1031.2 mb 0.00 in0.0 mm 0.00 in0.0 mm 0.00 in0.0 mm
12:19 PM 2.7°F-16.3°C -8.1°F-22.3°C 60% 5.4 mph SW8.7 kmh SW 20.6 mph33.2 kmh 30.46 in1031.5 mb 0.00 in0.0 mm 0.00 in0.0 mm 0.00 in0.0 mm
12:24 PM 2.7°F-16.3°C -8.5°F-22.5°C 59% 10.7 mph SW17.2 kmh SW 20.6 mph33.2 kmh 30.46 in1031.5 mb 0.00 in0.0 mm 0.00 in0.0 mm 0.00 in0.0 mm
12:29 PM 2.8°F-16.2°C -8.3°F-22.4°C 59% 4.0 mph SW6.4 kmh SW 12.3 mph19.8 kmh 30.46 in1031.5 mb 0.00 in0.0 mm 0.00 in0.0 mm 0.00 in0.0 mm
12:34 PM 3.0°F-16.1°C -8.1°F-22.3°C 59% 1.8 mph WSW2.9 kmh WSW 6.0 mph9.7 kmh 30.46 in1031.5 mb 0.00 in0.0 mm 0.00 in0.0 mm 0.00 in0.0 mm
12:39 PM 3.0°F-16.1°C -8.9°F-22.7°C 57% 1.8 mph WSW2.9 kmh WSW 6.9 mph11.1 kmh 30.46 in1031.5 mb 0.00 in0.0 mm 0.00 in0.0 mm 0.00 in0.0 mm
12:44 PM 3.0°F-16.1°C -8.9°F-22.7°C 57% 8.1 mph SW13.0 kmh SW 15.9 mph25.6 kmh 30.45 in1031.2 mb 0.00 in0.0 mm 0.00 in0.0 mm 0.00 in0.0 mm
12:49 PM 3.4°F-15.9°C -8.5°F-22.5°C 57% 7.4 mph SW11.9 kmh SW 14.1 mph22.7 kmh 30.45 in1031.2 mb 0.00 in0.0 mm 0.00 in0.0 mm 0.00 in0.0 mm
12:54 PM 3.4°F-15.9°C -8.9°F-22.7°C 56% 10.5 mph SW16.9 kmh SW 20.6 mph33.2 kmh 30.44 in1030.8 mb 0.00 in0.0 mm 0.00 in0.0 mm 0.00 in0.0 mm
12:59 PM 3.6°F-15.8°C -8.7°F-22.6°C 56% 6.0 mph SW9.7 kmh SW 15.7 mph25.3 kmh 30.45 in1031.2 mb 0.00 in0.0 mm 0.00 in0.0 mm 0.00 in0.0 mm
01:04 PM 3.6°F-15.8°C -8.7°F-22.6°C 56% 3.6 mph SW5.8 kmh SW 7.8 mph12.6 kmh 30.44 in1030.8 mb 0.00 in0.0 mm 0.00 in0.0 mm 0.00 in0.0 mm
01:09 PM 4.1°F-15.5°C -8.1°F-22.3°C 56% 3.8 mph SW6.1 kmh SW 9.8 mph15.8 kmh 30.44 in1030.8 mb 0.00 in0.0 mm 0.00 in0.0 mm 0.00 in0.0 mm
01:14 PM 4.1°F-15.5°C -8.5°F-22.5°C 55% 9.4 mph SW15.1 kmh SW 16.1 mph25.9 kmh 30.44 in1030.8 mb 0.00 in0.0 mm 0.00 in0.0 mm 0.00 in0.0 mm
01:19 PM 4.3°F-15.4°C -8.0°F-22.2°C 56% 11.0 mph SW17.7 kmh SW 23.0 mph37.0 kmh 30.43 in1030.5 mb 0.00 in0.0 mm 0.00 in0.0 mm 0.00 in0.0 mm
01:24 PM 4.3°F-15.4°C -8.3°F-22.4°C 55% 8.7 mph SW14.0 kmh SW 18.8 mph30.3 kmh 30.43 in1030.5 mb 0.00 in0.0 mm 0.00 in0.0 mm 0.00 in0.0 mm
01:29 PM 4.5°F-15.3°C -8.1°F-22.3°C 55% 1.8 mph NW2.9 kmh NW 7.2 mph11.6 kmh 30.43 in1030.5 mb 0.00 in0.0 mm 0.00 in0.0 mm 0.00 in0.0 mm
01:34 PM 4.6°F-15.2°C -8.0°F-22.2°C 55% 5.4 mph SW8.7 kmh SW 17.9 mph28.8 kmh 30.43 in1030.5 mb 0.00 in0.0 mm 0.00 in0.0 mm 0.00 in0.0 mm
01:39 PM 4.6°F-15.2°C -8.0°F-22.2°C 55% 1.8 mph WNW2.9 kmh WNW 3.6 mph5.8 kmh 30.42 in1030.1 mb 0.00 in0.0 mm 0.00 in0.0 mm 0.00 in0.0 mm
01:44 PM 4.6°F-15.2°C -8.3°F-22.4°C 54% 5.6 mph SW9.0 kmh SW 11.0 mph17.7 kmh 30.42 in1030.1 mb 0.00 in0.0 mm 0.00 in0.0 mm 0.00 in0.0 mm
01:49 PM 4.8°F-15.1°C -8.1°F-22.3°C 54% 3.6 mph NW5.8 kmh NW 10.5 mph16.9 kmh 30.42 in1030.1 mb 0.00 in0.0 mm 0.00 in0.0 mm 0.00 in0.0 mm
01:54 PM 5.0°F-15.0°C -7.6°F-22.0°C 55% 10.3 mph SW16.6 kmh SW 20.1 mph32.3 kmh 30.42 in1030.1 mb 0.00 in0.0 mm 0.00 in0.0 mm 0.00 in0.0 mm
01:59 PM 5.2°F-14.9°C -7.8°F-22.1°C 54% 3.6 mph SSW5.8 kmh SSW 6.7 mph10.8 kmh 30.42 in1030.1 mb 0.00 in0.0 mm 0.00 in0.0 mm 0.00 in0.0 mm
02:04 PM 5.2°F-14.9°C -7.8°F-22.1°C 54% 3.8 mph SW6.1 kmh SW 6.3 mph10.1 kmh 30.42 in1030.1 mb 0.00 in0.0 mm 0.00 in0.0 mm 0.00 in0.0 mm
02:09 PM 5.4°F-14.8°C -7.8°F-22.1°C 54% 2.5 mph WSW4.0 kmh WSW 6.0 mph9.7 kmh 30.42 in1030.1 mb 0.00 in0.0 mm 0.00 in0.0 mm 0.00 in0.0 mm
02:14 PM 5.5°F-14.7°C -7.6°F-22.0°C 54% 6.9 mph SW11.1 kmh SW 12.8 mph20.6 kmh 30.42 in1030.1 mb 0.00 in0.0 mm 0.00 in0.0 mm 0.00 in0.0 mm
02:19 PM 5.7°F-14.6°C -7.4°F-21.9°C 54% 3.1 mph SSW5.0 kmh SSW 5.8 mph9.3 kmh 30.41 in1029.8 mb 0.00 in0.0 mm 0.00 in0.0 mm 0.00 in0.0 mm
02:24 PM 5.5°F-14.7°C -7.6°F-22.0°C 54% 1.6 mph S2.6 kmh S 3.4 mph5.5 kmh 30.42 in1030.1 mb 0.00 in0.0 mm 0.00 in0.0 mm 0.00 in0.0 mm
02:29 PM 5.7°F-14.6°C -7.4°F-21.9°C 54% 1.6 mph NE2.6 kmh NE 3.1 mph5.0 kmh 30.42 in1030.1 mb 0.00 in0.0 mm 0.00 in0.0 mm 0.00 in0.0 mm
02:34 PM 6.1°F-14.4°C -7.1°F-21.7°C 54% 1.1 mph NE1.8 kmh NE 2.2 mph3.5 kmh 30.42 in1030.1 mb 0.00 in0.0 mm 0.00 in0.0 mm 0.00 in0.0 mm
02:39 PM 6.3°F-14.3°C -7.2°F-21.8°C 53% 3.1 mph SSW5.0 kmh SSW 6.5 mph10.5 kmh 30.42 in1030.1 mb 0.00 in0.0 mm 0.00 in0.0 mm 0.00 in0.0 mm
02:44 PM 6.1°F-14.4°C -7.8°F-22.1°C 52% 2.9 mph S4.7 kmh S 6.5 mph10.5 kmh 30.42 in1030.1 mb 0.00 in0.0 mm 0.00 in0.0 mm 0.00 in0.0 mm
02:49 PM 6.1°F-14.4°C -7.4°F-21.9°C 53% 4.7 mph SSW7.6 kmh SSW 7.6 mph12.2 kmh 30.42 in1030.1 mb 0.00 in0.0 mm 0.00 in0.0 mm 0.00 in0.0 mm
02:54 PM 6.3°F-14.3°C -7.2°F-21.8°C 53% 2.5 mph SE4.0 kmh SE 6.9 mph11.1 kmh 30.42 in1030.1 mb 0.00 in0.0 mm 0.00 in0.0 mm 0.00 in0.0 mm
02:59 PM 6.6°F-14.1°C -6.9°F-21.6°C 53% 2.7 mph SW4.3 kmh SW 8.5 mph13.7 kmh 30.42 in1030.1 mb 0.00 in0.0 mm 0.00 in0.0 mm 0.00 in0.0 mm
03:04 PM 6.6°F-14.1°C -6.9°F-21.6°C 53% 4.9 mph SSW7.9 kmh SSW 7.4 mph11.9 kmh 30.42 in1030.1 mb 0.00 in0.0 mm 0.00 in0.0 mm 0.00 in0.0 mm
03:09 PM 6.8°F-14.0°C -6.7°F-21.5°C 53% 5.4 mph SW8.7 kmh SW 14.5 mph23.3 kmh 30.42 in1030.1 mb 0.00 in0.0 mm 0.00 in0.0 mm 0.00 in0.0 mm
03:14 PM 7.0°F-13.9°C -6.5°F-21.4°C 53% 10.5 mph SW16.9 kmh SW 19.0 mph30.6 kmh 30.42 in1030.1 mb 0.00 in0.0 mm 0.00 in0.0 mm 0.00 in0.0 mm
03:18 PM 6.6°F-14.1°C -7.2°F-21.8°C 52% 6.0 mph SSW9.7 kmh SSW 9.8 mph15.8 kmh 30.41 in1029.8 mb 0.00 in0.0 mm 0.00 in0.0 mm 0.00 in0.0 mm
03:23 PM 6.4°F-14.2°C -7.8°F-22.1°C 51% 1.8 mph NW2.9 kmh NW 4.3 mph6.9 kmh 30.42 in1030.1 mb 0.00 in0.0 mm 0.00 in0.0 mm 0.00 in0.0 mm
03:28 PM 6.8°F-14.0°C -7.1°F-21.7°C 52% 2.7 mph NW4.3 kmh NW 8.3 mph13.4 kmh 30.41 in1029.8 mb 0.00 in0.0 mm 0.00 in0.0 mm 0.00 in0.0 mm
03:33 PM 6.6°F-14.1°C -7.8°F-22.1°C 51% 4.7 mph WSW7.6 kmh WSW 11.4 mph18.3 kmh 30.41 in1029.8 mb 0.00 in0.0 mm 0.00 in0.0 mm 0.00 in0.0 mm
03:38 PM 6.6°F-14.1°C -7.8°F-22.1°C 51% 2.5 mph SSW4.0 kmh SSW 5.8 mph9.3 kmh 30.42 in1030.1 mb 0.00 in0.0 mm 0.00 in0.0 mm 0.00 in0.0 mm
03:43 PM 7.0°F-13.9°C -6.9°F-21.6°C 52% 2.5 mph WSW4.0 kmh WSW 4.7 mph7.6 kmh 30.42 in1030.1 mb 0.00 in0.0 mm 0.00 in0.0 mm 0.00 in0.0 mm
03:48 PM 7.0°F-13.9°C -6.9°F-21.6°C 52% 3.8 mph S6.1 kmh S 10.7 mph17.2 kmh 30.42 in1030.1 mb 0.00 in0.0 mm 0.00 in0.0 mm 0.00 in0.0 mm
03:53 PM 7.0°F-13.9°C -7.4°F-21.9°C 51% 1.3 mph NE2.1 kmh NE 2.9 mph4.7 kmh 30.42 in1030.1 mb 0.00 in0.0 mm 0.00 in0.0 mm 0.00 in0.0 mm
03:58 PM 7.2°F-13.8°C -7.2°F-21.8°C 51% 4.3 mph S6.9 kmh S 7.2 mph11.6 kmh 30.41 in1029.8 mb 0.00 in0.0 mm 0.00 in0.0 mm 0.00 in0.0 mm
04:03 PM 7.0°F-13.9°C -7.4°F-21.9°C 51% 2.2 mph WSW3.5 kmh WSW 4.7 mph7.6 kmh 30.41 in1029.8 mb 0.00 in0.0 mm 0.00 in0.0 mm 0.00 in0.0 mm
04:08 PM 7.2°F-13.8°C -6.9°F-21.6°C 52% 4.7 mph SW7.6 kmh SW 9.4 mph15.1 kmh 30.42 in1030.1 mb 0.00 in0.0 mm 0.00 in0.0 mm 0.00 in0.0 mm
04:13 PM 7.2°F-13.8°C -6.9°F-21.6°C 52% 3.1 mph S5.0 kmh S 6.5 mph10.5 kmh 30.41 in1029.8 mb 0.00 in0.0 mm 0.00 in0.0 mm 0.00 in0.0 mm
04:18 PM 7.2°F-13.8°C -6.9°F-21.6°C 52% 3.8 mph SW6.1 kmh SW 8.7 mph14.0 kmh 30.42 in1030.1 mb 0.00 in0.0 mm 0.00 in0.0 mm 0.00 in0.0 mm
04:23 PM 7.2°F-13.8°C -6.9°F-21.6°C 52% 6.9 mph SW11.1 kmh SW 12.5 mph20.1 kmh 30.42 in1030.1 mb 0.00 in0.0 mm 0.00 in0.0 mm 0.00 in0.0 mm
04:28 PM 7.3°F-13.7°C -6.7°F-21.5°C 52% 8.3 mph SW13.4 kmh SW 20.8 mph33.5 kmh 30.42 in1030.1 mb 0.00 in0.0 mm 0.00 in0.0 mm 0.00 in0.0 mm
04:33 PM 7.2°F-13.8°C -6.9°F-21.6°C 52% 5.4 mph SW8.7 kmh SW 10.5 mph16.9 kmh 30.42 in1030.1 mb 0.00 in0.0 mm 0.00 in0.0 mm 0.00 in0.0 mm
04:38 PM 7.0°F-13.9°C -7.4°F-21.9°C 51% 6.3 mph SSW10.1 kmh SSW 14.1 mph22.7 kmh 30.42 in1030.1 mb 0.00 in0.0 mm 0.00 in0.0 mm 0.00 in0.0 mm
04:43 PM 7.0°F-13.9°C -7.4°F-21.9°C 51% 1.8 mph S2.9 kmh S 4.0 mph6.4 kmh 30.42 in1030.1 mb 0.00 in0.0 mm 0.00 in0.0 mm 0.00 in0.0 mm
04:48 PM 7.0°F-13.9°C -7.4°F-21.9°C 51% 3.1 mph SSW5.0 kmh SSW 6.7 mph10.8 kmh 30.42 in1030.1 mb 0.00 in0.0 mm 0.00 in0.0 mm 0.00 in0.0 mm
04:53 PM 7.0°F-13.9°C -7.4°F-21.9°C 51% 1.1 mph NW1.8 kmh NW 2.7 mph4.3 kmh 30.42 in1030.1 mb 0.00 in0.0 mm 0.00 in0.0 mm 0.00 in0.0 mm
04:58 PM 7.0°F-13.9°C -7.4°F-21.9°C 51% 2.9 mph WSW4.7 kmh WSW 9.4 mph15.1 kmh 30.42 in1030.1 mb 0.00 in0.0 mm 0.00 in0.0 mm 0.00 in0.0 mm
05:03 PM 7.0°F-13.9°C -6.9°F-21.6°C 52% 6.0 mph SW9.7 kmh SW 12.1 mph19.5 kmh 30.42 in1030.1 mb 0.00 in0.0 mm 0.00 in0.0 mm 0.00 in0.0 mm
05:13 PM 7.0°F-13.9°C -6.9°F-21.6°C 52% 1.3 mph W2.1 kmh W 3.8 mph6.1 kmh 30.43 in1030.5 mb 0.00 in0.0 mm 0.00 in0.0 mm 0.00 in0.0 mm
05:18 PM 6.8°F-14.0°C -7.1°F-21.7°C 52% 1.6 mph NNW2.6 kmh NNW 3.6 mph5.8 kmh 30.43 in1030.5 mb 0.00 in0.0 mm 0.00 in0.0 mm 0.00 in0.0 mm
05:23 PM 7.0°F-13.9°C -6.9°F-21.6°C 52% 4.5 mph SW7.2 kmh SW 9.6 mph15.4 kmh 30.43 in1030.5 mb 0.00 in0.0 mm 0.00 in0.0 mm 0.00 in0.0 mm
05:28 PM 7.0°F-13.9°C -6.9°F-21.6°C 52% 0.9 mph NW1.4 kmh NW 1.8 mph2.9 kmh 30.43 in1030.5 mb 0.00 in0.0 mm 0.00 in0.0 mm 0.00 in0.0 mm
05:33 PM 7.0°F-13.9°C -6.9°F-21.6°C 52% 1.3 mph WSW2.1 kmh WSW 2.7 mph4.3 kmh 30.43 in1030.5 mb 0.00 in0.0 mm 0.00 in0.0 mm 0.00 in0.0 mm
05:38 PM 6.8°F-14.0°C -7.1°F-21.7°C 52% 1.3 mph WSW2.1 kmh WSW 3.1 mph5.0 kmh 30.43 in1030.5 mb 0.00 in0.0 mm 0.00 in0.0 mm 0.00 in0.0 mm
05:43 PM 6.8°F-14.0°C -6.7°F-21.5°C 53% 2.5 mph NNE4.0 kmh NNE 4.9 mph7.9 kmh 30.43 in1030.5 mb 0.00 in0.0 mm 0.00 in0.0 mm 0.00 in0.0 mm
05:48 PM 6.6°F-14.1°C -6.9°F-21.6°C 53% 1.8 mph N2.9 kmh N 3.8 mph6.1 kmh 30.43 in1030.5 mb 0.00 in0.0 mm 0.00 in0.0 mm 0.00 in0.0 mm
05:53 PM 6.6°F-14.1°C -6.9°F-21.6°C 53% 1.3 mph WSW2.1 kmh WSW 1.8 mph2.9 kmh 30.43 in1030.5 mb 0.00 in0.0 mm 0.00 in0.0 mm 0.00 in0.0 mm
05:58 PM 6.6°F-14.1°C -6.5°F-21.4°C 54% 2.0 mph WSW3.2 kmh WSW 6.0 mph9.7 kmh 30.43 in1030.5 mb 0.00 in0.0 mm 0.00 in0.0 mm 0.00 in0.0 mm
06:03 PM 6.4°F-14.2°C -6.7°F-21.5°C 54% 8.5 mph SW13.7 kmh SW 13.4 mph21.6 kmh 30.43 in1030.5 mb 0.00 in0.0 mm 0.00 in0.0 mm 0.00 in0.0 mm
06:08 PM 6.3°F-14.3°C -6.9°F-21.6°C 54% 3.8 mph SSW6.1 kmh SSW 8.5 mph13.7 kmh 30.43 in1030.5 mb 0.00 in0.0 mm 0.00 in0.0 mm 0.00 in0.0 mm
06:13 PM 6.3°F-14.3°C -6.9°F-21.6°C 54% 3.1 mph SSW5.0 kmh SSW 9.2 mph14.8 kmh 30.43 in1030.5 mb 0.00 in0.0 mm 0.00 in0.0 mm 0.00 in0.0 mm
06:18 PM 6.1°F-14.4°C -7.1°F-21.7°C 54% 2.7 mph SW4.3 kmh SW 7.4 mph11.9 kmh 30.44 in1030.8 mb 0.00 in0.0 mm 0.00 in0.0 mm 0.00 in0.0 mm
06:23 PM 5.9°F-14.5°C -7.2°F-21.8°C 54% 4.7 mph SW7.6 kmh SW 13.0 mph20.9 kmh 30.44 in1030.8 mb 0.00 in0.0 mm 0.00 in0.0 mm 0.00 in0.0 mm
06:28 PM 5.9°F-14.5°C -7.2°F-21.8°C 54% 3.8 mph SW6.1 kmh SW 11.2 mph18.0 kmh 30.44 in1030.8 mb 0.00 in0.0 mm 0.00 in0.0 mm 0.00 in0.0 mm
06:33 PM 5.7°F-14.6°C -7.4°F-21.9°C 54% 1.3 mph SW2.1 kmh SW 2.7 mph4.3 kmh 30.44 in1030.8 mb 0.00 in0.0 mm 0.00 in0.0 mm 0.00 in0.0 mm
06:38 PM 5.7°F-14.6°C -7.1°F-21.7°C 55% 1.8 mph WSW2.9 kmh WSW 8.9 mph14.3 kmh 30.45 in1031.2 mb 0.00 in0.0 mm 0.00 in0.0 mm 0.00 in0.0 mm
06:43 PM 5.7°F-14.6°C -7.1°F-21.7°C 55% 2.9 mph SW4.7 kmh SW 9.2 mph14.8 kmh 30.45 in1031.2 mb 0.00 in0.0 mm 0.00 in0.0 mm 0.00 in0.0 mm
06:48 PM 5.7°F-14.6°C -7.1°F-21.7°C 55% 1.3 mph WSW2.1 kmh WSW 2.7 mph4.3 kmh 30.44 in1030.8 mb 0.00 in0.0 mm 0.00 in0.0 mm 0.00 in0.0 mm
06:53 PM 5.4°F-14.8°C -7.2°F-21.8°C 55% 3.1 mph SW5.0 kmh SW 8.5 mph13.7 kmh 30.44 in1030.8 mb 0.00 in0.0 mm 0.00 in0.0 mm 0.00 in0.0 mm
06:58 PM 5.2°F-14.9°C -7.4°F-21.9°C 55% 2.9 mph WSW4.7 kmh WSW 10.3 mph16.6 kmh 30.45 in1031.2 mb 0.00 in0.0 mm 0.00 in0.0 mm 0.00 in0.0 mm
07:03 PM 5.4°F-14.8°C -6.9°F-21.6°C 56% 1.1 mph WSW1.8 kmh WSW 3.8 mph6.1 kmh 30.45 in1031.2 mb 0.00 in0.0 mm 0.00 in0.0 mm 0.00 in0.0 mm
07:08 PM 5.2°F-14.9°C -7.1°F-21.7°C 56% 2.5 mph SW4.0 kmh SW 7.8 mph12.6 kmh 30.45 in1031.2 mb 0.00 in0.0 mm 0.00 in0.0 mm 0.00 in0.0 mm
07:13 PM 5.4°F-14.8°C -6.9°F-21.6°C 56% 1.3 mph SW2.1 kmh SW 3.4 mph5.5 kmh 30.45 in1031.2 mb 0.00 in0.0 mm 0.00 in0.0 mm 0.00 in0.0 mm
07:18 PM 5.2°F-14.9°C -7.1°F-21.7°C 56% 0.9 mph SW1.4 kmh SW 2.0 mph3.2 kmh 30.45 in1031.2 mb 0.00 in0.0 mm 0.00 in0.0 mm 0.00 in0.0 mm
07:23 PM 5.4°F-14.8°C -6.5°F-21.4°C 57% 1.1 mph SW1.8 kmh SW 3.1 mph5.0 kmh 30.45 in1031.2 mb 0.00 in0.0 mm 0.00 in0.0 mm 0.00 in0.0 mm
07:28 PM 5.2°F-14.9°C -7.1°F-21.7°C 56% 2.9 mph SW4.7 kmh SW 9.4 mph15.1 kmh 30.45 in1031.2 mb 0.00 in0.0 mm 0.00 in0.0 mm 0.00 in0.0 mm
07:33 PM 5.4°F-14.8°C -6.5°F-21.4°C 57% 1.6 mph SW2.6 kmh SW 7.8 mph12.6 kmh 30.45 in1031.2 mb 0.00 in0.0 mm 0.00 in0.0 mm 0.00 in0.0 mm
07:38 PM 5.4°F-14.8°C -6.5°F-21.4°C 57% 5.6 mph SW9.0 kmh SW 15.2 mph24.5 kmh 30.45 in1031.2 mb 0.00 in0.0 mm 0.00 in0.0 mm 0.00 in0.0 mm
07:43 PM 5.4°F-14.8°C -6.5°F-21.4°C 57% 2.0 mph SW3.2 kmh SW 6.5 mph10.5 kmh 30.45 in1031.2 mb 0.00 in0.0 mm 0.00 in0.0 mm 0.00 in0.0 mm
07:48 PM 5.4°F-14.8°C -6.5°F-21.4°C 57% 1.6 mph SW2.6 kmh SW 4.9 mph7.9 kmh 30.44 in1030.8 mb 0.00 in0.0 mm 0.00 in0.0 mm 0.00 in0.0 mm
07:53 PM 5.4°F-14.8°C -6.5°F-21.4°C 57% 5.6 mph SW9.0 kmh SW 18.8 mph30.3 kmh 30.45 in1031.2 mb 0.00 in0.0 mm 0.00 in0.0 mm 0.00 in0.0 mm
07:58 PM 5.0°F-15.0°C -6.9°F-21.6°C 57% 5.8 mph SW9.3 kmh SW 13.9 mph22.4 kmh 30.45 in1031.2 mb 0.00 in0.0 mm 0.00 in0.0 mm 0.00 in0.0 mm
08:03 PM 5.2°F-14.9°C -6.7°F-21.5°C 57% 2.0 mph SW3.2 kmh SW 10.1 mph16.3 kmh 30.45 in1031.2 mb 0.00 in0.0 mm 0.00 in0.0 mm 0.00 in0.0 mm
08:08 PM 5.2°F-14.9°C -6.7°F-21.5°C 57% 1.1 mph WSW1.8 kmh WSW 3.1 mph5.0 kmh 30.45 in1031.2 mb 0.00 in0.0 mm 0.00 in0.0 mm 0.00 in0.0 mm
08:13 PM 5.2°F-14.9°C -6.0°F-21.1°C 59% 1.8 mph SW2.9 kmh SW 6.7 mph10.8 kmh 30.45 in1031.2 mb 0.00 in0.0 mm 0.00 in0.0 mm 0.00 in0.0 mm
08:18 PM 5.0°F-15.0°C -6.2°F-21.2°C 59% 1.8 mph SW2.9 kmh SW 4.5 mph7.2 kmh 30.45 in1031.2 mb 0.00 in0.0 mm 0.00 in0.0 mm 0.00 in0.0 mm
08:23 PM 5.0°F-15.0°C -6.2°F-21.2°C 59% 2.0 mph SW3.2 kmh SW 4.7 mph7.6 kmh 30.45 in1031.2 mb 0.00 in0.0 mm 0.00 in0.0 mm 0.00 in0.0 mm
08:28 PM 5.0°F-15.0°C -5.8°F-21.0°C 60% 0.7 mph SW1.1 kmh SW 3.6 mph5.8 kmh 30.46 in1031.5 mb 0.00 in0.0 mm 0.00 in0.0 mm 0.00 in0.0 mm
08:33 PM 5.0°F-15.0°C -6.2°F-21.2°C 59% 2.2 mph NW3.5 kmh NW 8.3 mph13.4 kmh 30.45 in1031.2 mb 0.00 in0.0 mm 0.00 in0.0 mm 0.00 in0.0 mm
08:38 PM 5.2°F-14.9°C -6.0°F-21.1°C 59% 1.6 mph SW2.6 kmh SW 3.6 mph5.8 kmh 30.46 in1031.5 mb 0.00 in0.0 mm 0.00 in0.0 mm 0.00 in0.0 mm
08:43 PM 5.2°F-14.9°C -6.0°F-21.1°C 59% 2.2 mph SW3.5 kmh SW 8.1 mph13.0 kmh 30.46 in1031.5 mb 0.00 in0.0 mm 0.00 in0.0 mm 0.00 in0.0 mm
08:48 PM 5.4°F-14.8°C -5.8°F-21.0°C 59% 1.3 mph SW2.1 kmh SW 5.4 mph8.7 kmh 30.45 in1031.2 mb 0.00 in0.0 mm 0.00 in0.0 mm 0.00 in0.0 mm
08:53 PM 5.4°F-14.8°C -5.4°F-20.8°C 60% 4.7 mph SW7.6 kmh SW 17.2 mph27.7 kmh 30.45 in1031.2 mb 0.00 in0.0 mm 0.00 in0.0 mm 0.00 in0.0 mm
08:58 PM 5.4°F-14.8°C -5.4°F-20.8°C 60% 2.2 mph S3.5 kmh S 5.6 mph9.0 kmh 30.45 in1031.2 mb 0.00 in0.0 mm 0.00 in0.0 mm 0.00 in0.0 mm
09:03 PM 5.5°F-14.7°C -5.4°F-20.8°C 60% 1.6 mph WNW2.6 kmh WNW 2.9 mph4.7 kmh 30.44 in1030.8 mb 0.00 in0.0 mm 0.00 in0.0 mm 0.00 in0.0 mm
09:08 PM 5.2°F-14.9°C -5.6°F-20.9°C 60% 1.8 mph WNW2.9 kmh WNW 2.7 mph4.3 kmh 30.45 in1031.2 mb 0.00 in0.0 mm 0.00 in0.0 mm 0.00 in0.0 mm
09:13 PM 5.4°F-14.8°C -5.4°F-20.8°C 60% 1.1 mph WSW1.8 kmh WSW 2.2 mph3.5 kmh 30.44 in1030.8 mb 0.00 in0.0 mm 0.00 in0.0 mm 0.00 in0.0 mm
09:18 PM 5.4°F-14.8°C -5.4°F-20.8°C 60% 2.7 mph SW4.3 kmh SW 8.9 mph14.3 kmh 30.45 in1031.2 mb 0.00 in0.0 mm 0.00 in0.0 mm 0.00 in0.0 mm
09:23 PM 5.4°F-14.8°C -5.4°F-20.8°C 60% 1.1 mph WSW1.8 kmh WSW 1.8 mph2.9 kmh 30.44 in1030.8 mb 0.00 in0.0 mm 0.00 in0.0 mm 0.00 in0.0 mm
09:28 PM 5.4°F-14.8°C -5.4°F-20.8°C 60% 1.3 mph W2.1 kmh W 2.5 mph4.0 kmh 30.44 in1030.8 mb 0.00 in0.0 mm 0.00 in0.0 mm 0.00 in0.0 mm
09:33 PM 5.5°F-14.7°C -5.4°F-20.8°C 60% 2.0 mph NNW3.2 kmh NNW 2.5 mph4.0 kmh 30.44 in1030.8 mb 0.00 in0.0 mm 0.00 in0.0 mm 0.00 in0.0 mm
09:38 PM 5.5°F-14.7°C -5.4°F-20.8°C 60% 2.9 mph SW4.7 kmh SW 5.1 mph8.2 kmh 30.44 in1030.8 mb 0.00 in0.0 mm 0.00 in0.0 mm 0.00 in0.0 mm
09:43 PM 5.5°F-14.7°C -5.4°F-20.8°C 60% 1.3 mph W2.1 kmh W 3.8 mph6.1 kmh 30.44 in1030.8 mb 0.00 in0.0 mm 0.00 in0.0 mm 0.00 in0.0 mm
09:48 PM 5.5°F-14.7°C -5.6°F-20.9°C 59% 1.6 mph W2.6 kmh W 3.4 mph5.5 kmh 30.44 in1030.8 mb 0.00 in0.0 mm 0.00 in0.0 mm 0.00 in0.0 mm
09:53 PM 5.5°F-14.7°C -5.6°F-20.9°C 59% 2.0 mph SW3.2 kmh SW 4.3 mph6.9 kmh 30.44 in1030.8 mb 0.00 in0.0 mm 0.00 in0.0 mm 0.00 in0.0 mm
09:58 PM 5.7°F-14.6°C -5.6°F-20.9°C 59% 1.1 mph WNW1.8 kmh WNW 2.9 mph4.7 kmh 30.44 in1030.8 mb 0.00 in0.0 mm 0.00 in0.0 mm 0.00 in0.0 mm
10:03 PM 5.7°F-14.6°C -5.6°F-20.9°C 59% 1.6 mph NW2.6 kmh NW 2.2 mph3.5 kmh 30.44 in1030.8 mb 0.00 in0.0 mm 0.00 in0.0 mm 0.00 in0.0 mm
10:08 PM 5.9°F-14.5°C -5.1°F-20.6°C 60% 1.6 mph NW2.6 kmh NW 2.7 mph4.3 kmh 30.44 in1030.8 mb 0.00 in0.0 mm 0.00 in0.0 mm 0.00 in0.0 mm
10:13 PM 5.9°F-14.5°C -5.1°F-20.6°C 60% 1.3 mph NW2.1 kmh NW 2.7 mph4.3 kmh 30.44 in1030.8 mb 0.00 in0.0 mm 0.00 in0.0 mm 0.00 in0.0 mm
10:18 PM 5.7°F-14.6°C -5.3°F-20.7°C 60% 1.3 mph SSW2.1 kmh SSW 2.7 mph4.3 kmh 30.44 in1030.8 mb 0.00 in0.0 mm 0.00 in0.0 mm 0.00 in0.0 mm
10:23 PM 5.9°F-14.5°C -5.1°F-20.6°C 60% 1.8 mph WSW2.9 kmh WSW 4.0 mph6.4 kmh 30.44 in1030.8 mb 0.00 in0.0 mm 0.00 in0.0 mm 0.00 in0.0 mm
10:28 PM 5.9°F-14.5°C -5.1°F-20.6°C 60% 3.1 mph SW5.0 kmh SW 5.6 mph9.0 kmh 30.44 in1030.8 mb 0.00 in0.0 mm 0.00 in0.0 mm 0.00 in0.0 mm
10:33 PM 5.9°F-14.5°C -5.1°F-20.6°C 60% 1.8 mph NW2.9 kmh NW 2.5 mph4.0 kmh 30.44 in1030.8 mb 0.00 in0.0 mm 0.00 in0.0 mm 0.00 in0.0 mm
10:38 PM 5.9°F-14.5°C -5.1°F-20.6°C 60% 2.9 mph SW4.7 kmh SW 5.6 mph9.0 kmh 30.44 in1030.8 mb 0.00 in0.0 mm 0.00 in0.0 mm 0.00 in0.0 mm
10:43 PM 5.9°F-14.5°C -5.1°F-20.6°C 60% 1.3 mph WSW2.1 kmh WSW 2.5 mph4.0 kmh 30.44 in1030.8 mb 0.00 in0.0 mm 0.00 in0.0 mm 0.00 in0.0 mm
10:48 PM 5.9°F-14.5°C -4.7°F-20.4°C 61% 1.6 mph NNW2.6 kmh NNW 3.8 mph6.1 kmh 30.44 in1030.8 mb 0.00 in0.0 mm 0.00 in0.0 mm 0.00 in0.0 mm
10:53 PM 5.9°F-14.5°C -4.7°F-20.4°C 61% 1.6 mph WNW2.6 kmh WNW 2.5 mph4.0 kmh 30.44 in1030.8 mb 0.00 in0.0 mm 0.00 in0.0 mm 0.00 in0.0 mm
10:58 PM 5.9°F-14.5°C -4.7°F-20.4°C 61% 1.3 mph SW2.1 kmh SW 3.1 mph5.0 kmh 30.44 in1030.8 mb 0.00 in0.0 mm 0.00 in0.0 mm 0.00 in0.0 mm
11:03 PM 6.1°F-14.4°C -4.5°F-20.3°C 61% 0.9 mph SW1.4 kmh SW 1.1 mph1.8 kmh 30.44 in1030.8 mb 0.00 in0.0 mm 0.00 in0.0 mm 0.00 in0.0 mm
11:08 PM 5.9°F-14.5°C -5.1°F-20.6°C 60% 1.8 mph N2.9 kmh N 3.1 mph5.0 kmh 30.44 in1030.8 mb 0.00 in0.0 mm 0.00 in0.0 mm 0.00 in0.0 mm
11:13 PM 5.7°F-14.6°C -5.3°F-20.7°C 60% 1.8 mph NW2.9 kmh NW 2.7 mph4.3 kmh 30.44 in1030.8 mb 0.00 in0.0 mm 0.00 in0.0 mm 0.00 in0.0 mm
11:18 PM 6.1°F-14.4°C -4.5°F-20.3°C 61% 1.8 mph WSW2.9 kmh WSW 2.5 mph4.0 kmh 30.44 in1030.8 mb 0.00 in0.0 mm 0.00 in0.0 mm 0.00 in0.0 mm
11:23 PM 6.1°F-14.4°C -4.5°F-20.3°C 61% 1.8 mph NW2.9 kmh NW 2.5 mph4.0 kmh 30.44 in1030.8 mb 0.00 in0.0 mm 0.00 in0.0 mm 0.00 in0.0 mm
11:28 PM 6.3°F-14.3°C -4.4°F-20.2°C 61% 1.6 mph SW2.6 kmh SW 2.7 mph4.3 kmh 30.44 in1030.8 mb 0.00 in0.0 mm 0.00 in0.0 mm 0.00 in0.0 mm
11:33 PM 6.3°F-14.3°C -4.0°F-20.0°C 62% 1.1 mph SW1.8 kmh SW 2.7 mph4.3 kmh 30.44 in1030.8 mb 0.00 in0.0 mm 0.00 in0.0 mm 0.00 in0.0 mm
11:38 PM 6.4°F-14.2°C -3.8°F-19.9°C 62% 2.5 mph SW4.0 kmh SW 6.3 mph10.1 kmh 30.43 in1030.5 mb 0.00 in0.0 mm 0.00 in0.0 mm 0.00 in0.0 mm
11:43 PM 6.6°F-14.1°C -3.6°F-19.8°C 62% 1.3 mph NW2.1 kmh NW 2.7 mph4.3 kmh 30.43 in1030.5 mb 0.00 in0.0 mm 0.00 in0.0 mm 0.00 in0.0 mm
11:48 PM 6.4°F-14.2°C -4.2°F-20.1°C 61% 3.4 mph SW5.5 kmh SW 8.1 mph13.0 kmh 30.43 in1030.5 mb 0.00 in0.0 mm 0.00 in0.0 mm 0.00 in0.0 mm
11:53 PM 6.4°F-14.2°C -4.2°F-20.1°C 61% 1.8 mph WSW2.9 kmh WSW 2.5 mph4.0 kmh 30.44 in1030.8 mb 0.00 in0.0 mm 0.00 in0.0 mm 0.00 in0.0 mm
11:58 PM 6.6°F-14.1°C -4.0°F-20.0°C 61% 2.5 mph SSW4.0 kmh SSW 4.0 mph6.4 kmh 30.44 in1030.8 mb 0.00 in0.0 mm 0.00 in0.0 mm 0.00 in0.0 mm